createdAt,value
2022-10-04T00:00:16.878Z,13.29
2022-10-04T00:01:17.228Z,13.30
2022-10-04T00:02:17.613Z,13.30
2022-10-04T00:03:17.971Z,13.30
2022-10-04T00:04:18.196Z,13.30
2022-10-04T00:05:18.537Z,13.32
2022-10-04T00:06:18.849Z,13.30
2022-10-04T00:07:19.190Z,13.30
2022-10-04T00:08:19.527Z,13.30
2022-10-04T00:09:19.861Z,13.32
2022-10-04T00:10:20.197Z,13.32
2022-10-04T00:11:20.537Z,13.32
2022-10-04T00:12:20.917Z,13.36
2022-10-04T00:13:21.114Z,13.32
2022-10-04T00:14:21.449Z,13.32
2022-10-04T00:15:21.791Z,13.33
2022-10-04T00:16:22.171Z,13.33
2022-10-04T00:17:22.391Z,13.33
2022-10-04T00:18:22.726Z,13.33
2022-10-04T00:19:23.064Z,13.33
2022-10-04T00:20:23.403Z,13.33
2022-10-04T00:21:23.731Z,13.36
2022-10-04T00:22:24.151Z,13.36
2022-10-04T00:23:24.383Z,13.36
2022-10-04T00:24:24.703Z,13.36
2022-10-04T00:25:25.031Z,13.33
2022-10-04T00:26:25.375Z,13.33
2022-10-04T00:27:26.590Z,13.32
2022-10-04T00:28:26.077Z,13.30
2022-10-04T00:29:26.297Z,13.32
2022-10-04T00:30:26.635Z,13.32
2022-10-04T00:31:27.043Z,13.30
2022-10-04T00:32:27.323Z,13.30
2022-10-04T00:33:27.544Z,13.29
2022-10-04T00:34:30.157Z,13.28
2022-10-04T00:35:28.046Z,13.28
2022-10-04T00:36:28.255Z,13.28
2022-10-04T00:37:28.622Z,13.26
2022-10-04T00:38:28.932Z,13.26
2022-10-04T00:39:29.271Z,13.28
2022-10-04T00:40:29.599Z,13.26
2022-10-04T00:41:29.926Z,13.26
2022-10-04T00:42:30.278Z,13.26
2022-10-04T00:43:30.471Z,13.26
2022-10-04T00:44:30.789Z,13.26
2022-10-04T00:45:31.112Z,13.28
2022-10-04T00:46:31.499Z,13.28
2022-10-04T00:47:31.950Z,13.28
2022-10-04T00:48:32.031Z,13.28
2022-10-04T00:49:32.382Z,13.28
2022-10-04T00:50:32.703Z,13.28
2022-10-04T00:51:33.053Z,13.29
2022-10-04T00:52:33.287Z,13.29
2022-10-04T00:53:33.499Z,13.30
2022-10-04T00:54:33.824Z,13.29
2022-10-04T00:55:34.143Z,13.30
2022-10-04T00:56:34.501Z,13.30
2022-10-04T00:57:34.751Z,13.30
2022-10-04T00:58:34.945Z,13.30
2022-10-04T00:59:35.271Z,13.29
2022-10-04T01:00:35.593Z,13.28
2022-10-04T01:01:35.913Z,13.28
2022-10-04T01:02:36.292Z,13.26
2022-10-04T01:03:36.488Z,13.26
2022-10-04T01:04:36.850Z,13.25
2022-10-04T01:05:37.068Z,13.23
2022-10-04T01:06:37.409Z,13.22
2022-10-04T01:07:37.782Z,13.22
2022-10-04T01:08:37.978Z,13.22
2022-10-04T01:09:38.317Z,13.23
2022-10-04T01:10:38.650Z,13.22
2022-10-04T01:11:39.124Z,13.22
2022-10-04T01:12:39.217Z,13.22
2022-10-04T01:13:39.561Z,13.22
2022-10-04T01:14:39.902Z,13.22
2022-10-04T01:15:40.295Z,13.22
2022-10-04T01:16:40.504Z,13.23
2022-10-04T01:17:40.848Z,13.23
2022-10-04T01:18:41.234Z,13.25
2022-10-04T01:19:41.442Z,13.22
2022-10-04T01:20:41.785Z,13.22
2022-10-04T01:21:42.295Z,13.23
2022-10-04T01:22:42.383Z,13.23
2022-10-04T01:23:42.705Z,13.25
2022-10-04T01:24:43.022Z,13.23
2022-10-04T01:25:43.349Z,13.22
2022-10-04T01:26:43.684Z,13.23
2022-10-04T01:27:44.053Z,13.23
2022-10-04T01:28:44.254Z,13.23
2022-10-04T01:29:44.583Z,13.22
2022-10-04T01:30:44.918Z,13.23
2022-10-04T01:31:45.670Z,13.22
2022-10-04T01:32:45.659Z,13.22
2022-10-04T01:33:45.835Z,13.20
2022-10-04T01:34:46.189Z,13.19
2022-10-04T01:35:46.514Z,13.20
2022-10-04T01:36:46.855Z,13.20
2022-10-04T01:37:47.217Z,13.19
2022-10-04T01:38:47.407Z,13.19
2022-10-04T01:39:47.737Z,13.19
2022-10-04T01:40:48.080Z,13.19
2022-10-04T01:41:48.406Z,13.19
2022-10-04T01:42:48.767Z,13.17
2022-10-04T01:43:48.960Z,13.17
2022-10-04T01:44:49.288Z,13.17
2022-10-04T01:45:49.614Z,13.15
2022-10-04T01:46:50.017Z,13.15
2022-10-04T01:47:50.254Z,13.17
2022-10-04T01:48:50.573Z,13.15
2022-10-04T01:49:50.910Z,13.15
2022-10-04T01:50:51.233Z,13.15
2022-10-04T01:51:51.580Z,13.12
2022-10-04T01:52:51.931Z,13.12
2022-10-04T01:53:52.143Z,13.10
2022-10-04T01:54:52.469Z,13.10
2022-10-04T01:55:52.799Z,13.11
2022-10-04T01:56:53.122Z,13.11
2022-10-04T01:57:53.453Z,13.10
2022-10-04T01:58:53.815Z,13.11
2022-10-04T01:59:54.023Z,13.11
2022-10-04T02:00:54.388Z,13.11
2022-10-04T02:01:54.614Z,13.10
2022-10-04T02:02:54.955Z,13.08
2022-10-04T02:03:55.287Z,13.10
2022-10-04T02:04:55.723Z,13.10
2022-10-04T02:05:55.943Z,13.08
2022-10-04T02:06:56.255Z,13.10
2022-10-04T02:07:56.615Z,13.08
2022-10-04T02:08:56.816Z,13.10
2022-10-04T02:09:57.145Z,13.08
2022-10-04T02:10:57.483Z,13.10
2022-10-04T02:11:57.807Z,13.10
2022-10-04T02:12:58.151Z,13.10
2022-10-04T02:13:58.503Z,13.10
2022-10-04T02:14:58.836Z,13.10
2022-10-04T02:15:59.223Z,13.11
2022-10-04T02:16:59.438Z,13.08
2022-10-04T02:17:59.780Z,13.10
2022-10-04T02:19:00.139Z,13.08
2022-10-04T02:20:00.357Z,13.07
2022-10-04T02:21:00.701Z,13.05
2022-10-04T02:22:01.050Z,13.03
2022-10-04T02:23:01.310Z,13.01
2022-10-04T02:24:01.498Z,13.03
2022-10-04T02:25:01.851Z,13.00
2022-10-04T02:26:02.201Z,13.00
2022-10-04T02:27:02.421Z,12.96
2022-10-04T02:28:02.851Z,12.96
2022-10-04T02:29:03.069Z,12.95
2022-10-04T02:30:03.392Z,12.93
2022-10-04T02:31:03.742Z,12.92
2022-10-04T02:32:04.149Z,12.92
2022-10-04T02:33:04.252Z,12.89
2022-10-04T02:34:04.574Z,12.87
2022-10-04T02:35:04.966Z,12.86
2022-10-04T02:36:05.143Z,12.83
2022-10-04T02:37:05.404Z,12.82
2022-10-04T02:38:05.766Z,12.83
2022-10-04T02:39:05.984Z,12.79
2022-10-04T02:40:06.298Z,12.78
2022-10-04T02:41:06.641Z,12.78
2022-10-04T02:42:06.986Z,12.78
2022-10-04T02:43:07.195Z,12.77
2022-10-04T02:44:07.518Z,12.77
2022-10-04T02:45:07.861Z,12.77
2022-10-04T02:46:08.207Z,12.75
2022-10-04T02:47:08.477Z,12.74
2022-10-04T02:48:08.809Z,12.75
2022-10-04T02:49:09.131Z,12.75
2022-10-04T02:50:09.452Z,12.75
2022-10-04T02:51:09.794Z,12.75
2022-10-04T02:52:10.152Z,12.75
2022-10-04T02:53:10.338Z,12.78
2022-10-04T02:54:10.701Z,12.77
2022-10-04T02:55:10.916Z,12.77
2022-10-04T02:56:11.263Z,12.78
2022-10-04T02:57:11.591Z,12.78
2022-10-04T02:58:11.929Z,12.77
2022-10-04T02:59:12.264Z,12.77
2022-10-04T03:00:12.587Z,12.77
2022-10-04T03:01:12.938Z,12.77
2022-10-04T03:02:13.219Z,12.78
2022-10-04T03:03:13.442Z,12.75
2022-10-04T03:04:13.763Z,12.77
2022-10-04T03:05:14.083Z,12.75
2022-10-04T03:06:14.433Z,12.75
2022-10-04T03:07:14.767Z,12.74
2022-10-04T03:08:15.095Z,12.74
2022-10-04T03:09:15.444Z,12.75
2022-10-04T03:10:15.665Z,12.75
2022-10-04T03:11:16.010Z,12.75
2022-10-04T03:12:16.352Z,12.75
2022-10-04T03:13:16.675Z,12.77
2022-10-04T03:14:24.762Z,12.75
2022-10-04T03:15:17.378Z,12.78
2022-10-04T03:16:17.741Z,12.78
2022-10-04T03:17:17.940Z,12.79
2022-10-04T03:18:18.180Z,12.79
2022-10-04T03:19:18.419Z,12.79
2022-10-04T03:20:18.654Z,12.79
2022-10-04T03:21:18.870Z,12.78
2022-10-04T03:22:19.220Z,12.78
2022-10-04T03:23:19.552Z,12.78
2022-10-04T03:24:19.890Z,12.79
2022-10-04T03:25:20.241Z,12.79
2022-10-04T03:26:20.504Z,12.78
2022-10-04T03:27:20.723Z,12.78
2022-10-04T03:28:21.121Z,12.77
2022-10-04T03:29:21.322Z,12.77
2022-10-04T03:30:21.663Z,12.77
2022-10-04T03:31:21.968Z,12.75
2022-10-04T03:32:22.195Z,12.74
2022-10-04T03:33:22.403Z,12.75
2022-10-04T03:34:22.747Z,12.75
2022-10-04T03:35:23.084Z,12.75
2022-10-04T03:36:23.434Z,12.75
2022-10-04T03:37:23.795Z,12.77
2022-10-04T03:38:24.077Z,12.78
2022-10-04T03:39:24.276Z,12.78
2022-10-04T03:40:24.617Z,12.77
2022-10-04T03:41:24.978Z,12.78
2022-10-04T03:42:25.206Z,12.78
2022-10-04T03:43:25.567Z,12.78
2022-10-04T03:44:25.778Z,12.78
2022-10-04T03:45:26.180Z,12.79
2022-10-04T03:46:26.449Z,12.79
2022-10-04T03:47:26.687Z,12.79
2022-10-04T03:48:26.927Z,12.78
2022-10-04T03:49:27.142Z,12.79
2022-10-04T03:50:27.473Z,12.79
2022-10-04T03:51:27.812Z,12.82
2022-10-04T03:52:28.181Z,12.82
2022-10-04T03:53:28.419Z,12.82
2022-10-04T03:54:28.656Z,12.82
2022-10-04T03:55:28.991Z,12.79
2022-10-04T03:56:29.230Z,12.82
2022-10-04T03:57:29.480Z,12.82
2022-10-04T03:58:29.685Z,12.82
2022-10-04T03:59:30.034Z,12.82
2022-10-04T04:00:30.376Z,12.79
2022-10-04T04:01:30.758Z,12.82
2022-10-04T04:02:31.046Z,12.79
2022-10-04T04:03:31.265Z,12.79
2022-10-04T04:04:31.613Z,12.79
2022-10-04T04:05:31.965Z,12.82
2022-10-04T04:06:32.186Z,12.82
2022-10-04T04:07:32.558Z,12.79
2022-10-04T04:08:32.786Z,12.79
2022-10-04T04:09:32.994Z,12.82
2022-10-04T04:10:33.351Z,12.79
2022-10-04T04:11:33.689Z,12.82
2022-10-04T04:12:33.936Z,12.79
2022-10-04T04:13:34.150Z,12.82
2022-10-04T04:14:34.511Z,12.82
2022-10-04T04:15:34.714Z,12.82
2022-10-04T04:16:35.156Z,12.82
2022-10-04T04:17:35.397Z,12.83
2022-10-04T04:18:35.597Z,12.79
2022-10-04T04:19:35.947Z,12.82
2022-10-04T04:20:36.158Z,12.82
2022-10-04T04:21:36.516Z,12.82
2022-10-04T04:22:36.748Z,12.79
2022-10-04T04:23:36.988Z,12.79
2022-10-04T04:24:37.221Z,12.82
2022-10-04T04:25:37.455Z,12.78
2022-10-04T04:26:37.711Z,12.79
2022-10-04T04:27:37.988Z,12.79
2022-10-04T04:28:38.271Z,12.78
2022-10-04T04:29:38.541Z,12.79
2022-10-04T04:30:38.792Z,12.78
2022-10-04T04:31:39.100Z,12.78
2022-10-04T04:32:39.322Z,12.79
2022-10-04T04:33:39.573Z,12.78
2022-10-04T04:34:39.803Z,12.78
2022-10-04T04:35:40.170Z,12.75
2022-10-04T04:36:40.404Z,12.75
2022-10-04T04:37:40.763Z,12.75
2022-10-04T04:38:40.963Z,12.75
2022-10-04T04:39:41.310Z,12.72
2022-10-04T04:40:41.642Z,12.71
2022-10-04T04:41:44.676Z,12.70
2022-10-04T04:42:43.324Z,12.70
2022-10-04T04:43:42.603Z,12.65
2022-10-04T04:44:42.966Z,12.64
2022-10-04T04:45:43.250Z,12.60
2022-10-04T04:46:43.598Z,12.60
2022-10-04T04:47:43.857Z,12.59
2022-10-04T04:48:44.100Z,12.59
2022-10-04T04:49:44.345Z,12.57
2022-10-04T04:50:44.650Z,12.57
2022-10-04T04:51:44.903Z,12.56
2022-10-04T04:52:45.156Z,12.54
2022-10-04T04:53:45.418Z,12.53
2022-10-04T04:54:45.658Z,12.52
2022-10-04T04:56:02.973Z,12.52
2022-10-04T04:56:47.228Z,12.50
2022-10-04T04:57:46.558Z,12.47
2022-10-04T04:58:46.807Z,12.47
2022-10-04T04:59:47.037Z,12.47
2022-10-04T05:00:47.309Z,12.47
2022-10-04T05:01:47.657Z,12.46
2022-10-04T05:02:47.892Z,12.46
2022-10-04T05:03:48.120Z,12.42
2022-10-04T05:04:48.464Z,12.41
2022-10-04T05:05:48.701Z,12.39
2022-10-04T05:06:49.053Z,12.39
2022-10-04T05:07:49.302Z,12.39
2022-10-04T05:08:49.531Z,12.39
2022-10-04T05:09:49.782Z,12.39
2022-10-04T05:10:50.029Z,12.39
2022-10-04T05:11:50.276Z,12.38
2022-10-04T05:12:50.513Z,12.37
2022-10-04T05:13:50.752Z,12.35
2022-10-04T05:14:51.003Z,12.37
2022-10-04T05:15:51.251Z,12.34
2022-10-04T05:16:51.525Z,12.32
2022-10-04T05:17:51.753Z,12.29
2022-10-04T05:18:51.986Z,12.31
2022-10-04T05:19:52.233Z,12.31
2022-10-04T05:20:52.465Z,12.28
2022-10-04T05:21:52.747Z,12.27
2022-10-04T05:22:53.005Z,12.27
2022-10-04T05:23:53.244Z,12.24
2022-10-04T05:24:53.487Z,12.28
2022-10-04T05:25:53.736Z,12.28
2022-10-04T05:26:53.991Z,12.29
2022-10-04T05:27:54.266Z,12.29
2022-10-04T05:28:54.522Z,12.29
2022-10-04T05:29:54.778Z,12.31
2022-10-04T05:30:55.004Z,12.32
2022-10-04T05:31:55.546Z,12.32
2022-10-04T05:32:55.665Z,12.34
2022-10-04T05:33:55.923Z,12.35
2022-10-04T05:34:56.158Z,12.35
2022-10-04T05:35:56.549Z,12.35
2022-10-04T05:36:56.781Z,12.37
2022-10-04T05:37:57.080Z,12.38
2022-10-04T05:38:57.361Z,12.41
2022-10-04T05:39:57.590Z,12.41
2022-10-04T05:40:57.846Z,12.42
2022-10-04T05:41:58.081Z,12.42
2022-10-04T05:42:58.330Z,12.45
2022-10-04T05:43:58.591Z,12.45
2022-10-04T05:44:58.841Z,12.47
2022-10-04T05:45:59.157Z,12.47
2022-10-04T05:46:59.402Z,12.52
2022-10-04T05:47:59.643Z,12.54
2022-10-04T05:48:59.873Z,12.56
2022-10-04T05:50:00.364Z,12.56
2022-10-04T05:51:00.573Z,12.60
2022-10-04T05:52:00.834Z,12.62
2022-10-04T05:53:01.097Z,12.60
2022-10-04T05:54:01.334Z,12.60
2022-10-04T05:55:01.573Z,12.64
2022-10-04T05:56:01.825Z,12.62
2022-10-04T05:57:02.067Z,12.62
2022-10-04T05:58:02.306Z,12.64
2022-10-04T05:59:02.534Z,12.62
2022-10-04T06:00:04.545Z,12.64
2022-10-04T06:01:03.094Z,12.62
2022-10-04T06:02:03.412Z,12.65
2022-10-04T06:03:03.555Z,12.65
2022-10-04T06:04:03.784Z,12.67
2022-10-04T06:05:04.041Z,12.67
2022-10-04T06:06:04.278Z,12.68
2022-10-04T06:07:04.547Z,12.68
2022-10-04T06:08:04.810Z,12.70
2022-10-04T06:09:05.063Z,12.72
2022-10-04T06:10:05.317Z,12.72
2022-10-04T06:11:05.577Z,12.75
2022-10-04T06:12:05.827Z,12.75
2022-10-04T06:13:06.190Z,12.75
2022-10-04T06:14:06.322Z,12.77
2022-10-04T06:15:06.590Z,12.78
2022-10-04T06:16:06.841Z,12.78
2022-10-04T06:17:07.155Z,12.82
2022-10-04T06:18:07.445Z,12.83
2022-10-04T06:19:08.026Z,12.83
2022-10-04T06:20:08.711Z,12.85
2022-10-04T06:21:08.193Z,12.86
2022-10-04T06:22:08.474Z,12.85
2022-10-04T06:23:08.752Z,12.85
2022-10-04T06:24:09.012Z,12.83
2022-10-04T06:25:09.263Z,12.83
2022-10-04T06:26:09.542Z,12.79
2022-10-04T06:27:09.774Z,12.82
2022-10-04T06:28:10.120Z,12.86
2022-10-04T06:29:10.353Z,12.90
2022-10-04T06:30:10.615Z,12.96
2022-10-04T06:31:10.926Z,13.03
2022-10-04T06:32:11.184Z,13.04
2022-10-04T06:33:11.454Z,13.05
2022-10-04T06:34:11.715Z,13.07
2022-10-04T06:35:11.966Z,13.07
2022-10-04T06:36:12.216Z,13.05
2022-10-04T06:37:12.476Z,13.08
2022-10-04T06:38:12.755Z,13.08
2022-10-04T06:39:13.016Z,13.10
2022-10-04T06:40:13.279Z,13.10
2022-10-04T06:41:13.508Z,13.10
2022-10-04T06:42:13.818Z,13.11
2022-10-04T06:43:14.083Z,13.11
2022-10-04T06:44:14.350Z,13.11
2022-10-04T06:45:14.608Z,13.10
2022-10-04T06:46:14.916Z,13.07
2022-10-04T06:47:15.151Z,13.05
2022-10-04T06:48:15.419Z,13.04
2022-10-04T06:49:15.688Z,13.01
2022-10-04T06:50:15.939Z,13.00
2022-10-04T06:51:16.192Z,13.00
2022-10-04T06:52:17.595Z,13.00
2022-10-04T06:53:16.767Z,13.00
2022-10-04T06:54:17.001Z,12.97
2022-10-04T06:55:17.242Z,12.97
2022-10-04T06:56:17.482Z,12.97
2022-10-04T06:57:17.743Z,13.00
2022-10-04T06:58:18.033Z,13.03
2022-10-04T06:59:18.284Z,13.05
2022-10-04T07:00:18.543Z,13.08
2022-10-04T07:01:18.854Z,13.11
2022-10-04T07:02:19.221Z,13.15
2022-10-04T07:03:19.378Z,13.17
2022-10-04T07:04:19.647Z,13.23
2022-10-04T07:05:19.910Z,13.26
2022-10-04T07:06:20.165Z,13.26
2022-10-04T07:07:20.448Z,13.30
2022-10-04T07:08:20.715Z,13.32
2022-10-04T07:09:20.968Z,13.32
2022-10-04T07:10:21.259Z,13.33
2022-10-04T07:11:21.499Z,13.36
2022-10-04T07:12:21.750Z,13.38
2022-10-04T07:13:22.012Z,13.39
2022-10-04T07:14:22.271Z,13.39
2022-10-04T07:15:22.519Z,13.45
2022-10-04T07:16:22.804Z,13.49
2022-10-04T07:17:23.088Z,13.51
2022-10-04T07:18:23.341Z,13.52
2022-10-04T07:19:23.593Z,13.51
2022-10-04T07:20:23.905Z,13.48
2022-10-04T07:21:24.139Z,13.45
2022-10-04T07:22:24.381Z,13.44
2022-10-04T07:23:28.353Z,13.42
2022-10-04T07:24:24.919Z,13.45
2022-10-04T07:25:25.179Z,13.48
2022-10-04T07:26:25.443Z,13.51
2022-10-04T07:27:25.700Z,13.54
2022-10-04T07:28:26.026Z,13.55
2022-10-04T07:29:26.193Z,13.60
2022-10-04T07:30:26.446Z,13.63
2022-10-04T07:31:26.734Z,13.64
2022-10-04T07:32:27.001Z,13.64
2022-10-04T07:33:27.292Z,13.70
2022-10-04T07:34:27.541Z,13.71
2022-10-04T07:35:27.794Z,13.73
2022-10-04T07:36:28.057Z,13.77
2022-10-04T07:37:28.324Z,13.78
2022-10-04T07:38:28.575Z,13.81
2022-10-04T07:39:28.878Z,13.81
2022-10-04T07:40:29.221Z,13.84
2022-10-04T07:41:29.455Z,13.85
2022-10-04T07:42:29.717Z,13.87
2022-10-04T07:43:30.036Z,13.89
2022-10-04T07:44:30.209Z,13.95
2022-10-04T07:45:30.487Z,14.02
2022-10-04T07:46:31.050Z,14.09
2022-10-04T07:47:31.109Z,14.12
2022-10-04T07:48:31.393Z,14.20
2022-10-04T07:49:31.685Z,14.25
2022-10-04T07:50:31.919Z,14.33
2022-10-04T07:51:32.197Z,14.37
2022-10-04T07:52:32.498Z,14.37
2022-10-04T07:53:32.759Z,14.43
2022-10-04T07:54:33.023Z,14.46
2022-10-04T07:55:33.283Z,14.47
2022-10-04T07:56:33.531Z,14.45
2022-10-04T07:57:33.822Z,14.42
2022-10-04T07:58:34.092Z,14.36
2022-10-04T07:59:34.365Z,14.32
2022-10-04T08:00:34.614Z,14.29
2022-10-04T08:01:34.999Z,14.28
2022-10-04T08:02:35.223Z,14.27
2022-10-04T08:03:35.442Z,14.27
2022-10-04T08:04:35.698Z,14.28
2022-10-04T08:05:35.977Z,14.25
2022-10-04T08:06:36.245Z,14.27
2022-10-04T08:07:36.533Z,14.25
2022-10-04T08:08:36.766Z,14.22
2022-10-04T08:09:37.018Z,14.24
2022-10-04T08:10:37.265Z,14.24
2022-10-04T08:11:37.569Z,14.25
2022-10-04T08:12:37.817Z,14.27
2022-10-04T08:13:38.078Z,14.28
2022-10-04T08:14:38.346Z,14.27
2022-10-04T08:15:38.669Z,14.27
2022-10-04T08:16:38.840Z,14.27
2022-10-04T08:17:39.136Z,14.25
2022-10-04T08:18:39.400Z,14.25
2022-10-04T08:19:39.652Z,14.22
2022-10-04T08:20:39.901Z,14.21
2022-10-04T08:21:40.160Z,14.20
2022-10-04T08:22:40.460Z,14.18
2022-10-04T08:23:40.732Z,14.15
2022-10-04T08:24:41.478Z,14.12
2022-10-04T08:25:41.283Z,14.07
2022-10-04T08:26:42.038Z,14.06
2022-10-04T08:27:43.352Z,14.04
2022-10-04T08:28:42.182Z,14.02
2022-10-04T08:29:42.459Z,14.02
2022-10-04T08:30:43.553Z,14.02
2022-10-04T08:31:42.993Z,13.99
2022-10-04T08:32:44.030Z,14.00
2022-10-04T08:33:43.583Z,13.99
2022-10-04T08:34:43.837Z,14.02
2022-10-04T08:35:44.085Z,14.00
2022-10-04T08:36:44.850Z,14.03
2022-10-04T08:37:44.630Z,14.03
2022-10-04T08:38:44.883Z,14.06
2022-10-04T08:39:45.173Z,14.07
2022-10-04T08:40:45.434Z,14.14
2022-10-04T08:41:45.715Z,14.14
2022-10-04T08:42:45.985Z,14.18
2022-10-04T08:43:46.276Z,14.24
2022-10-04T08:44:46.548Z,14.29
2022-10-04T08:45:46.827Z,14.35
2022-10-04T08:46:47.556Z,14.42
2022-10-04T08:47:47.380Z,14.51
2022-10-04T08:48:47.623Z,14.60
2022-10-04T08:49:47.901Z,14.69
2022-10-04T08:50:48.144Z,14.77
2022-10-04T08:51:48.403Z,14.84
2022-10-04T08:52:48.660Z,14.89
2022-10-04T08:53:48.917Z,14.92
2022-10-04T08:54:49.161Z,14.99
2022-10-04T08:55:49.439Z,15.03
2022-10-04T08:56:49.698Z,15.06
2022-10-04T08:57:49.963Z,15.07
2022-10-04T08:58:50.224Z,15.09
2022-10-04T08:59:50.492Z,15.13
2022-10-04T09:00:50.759Z,15.16
2022-10-04T09:01:51.050Z,15.19
2022-10-04T09:02:51.373Z,15.19
2022-10-04T09:03:51.653Z,15.17
2022-10-04T09:04:51.922Z,15.17
2022-10-04T09:05:52.204Z,15.19
2022-10-04T09:06:53.774Z,15.17
2022-10-04T09:07:52.818Z,15.16
2022-10-04T09:08:53.088Z,15.17
2022-10-04T09:09:53.336Z,15.17
2022-10-04T09:10:53.595Z,15.19
2022-10-04T09:11:53.836Z,15.19
2022-10-04T09:12:54.122Z,15.19
2022-10-04T09:13:54.397Z,15.20
2022-10-04T09:15:02.147Z,15.17
2022-10-04T09:15:55.070Z,15.14
2022-10-04T09:16:55.338Z,15.14
2022-10-04T09:17:55.618Z,15.13
2022-10-04T09:18:55.848Z,15.14
2022-10-04T09:20:01.616Z,15.17
2022-10-04T09:20:57.404Z,15.16
2022-10-04T09:21:56.719Z,15.14
2022-10-04T09:22:56.958Z,15.13
2022-10-04T09:23:57.189Z,15.14
2022-10-04T09:24:57.422Z,15.16
2022-10-04T09:25:57.674Z,15.17
2022-10-04T09:26:57.955Z,15.17
2022-10-04T09:27:58.229Z,15.20
2022-10-04T09:29:03.877Z,15.19
2022-10-04T09:29:59.848Z,15.17
2022-10-04T09:30:59.178Z,15.17
2022-10-04T09:31:59.424Z,15.17
2022-10-04T09:32:59.721Z,15.14
2022-10-04T09:33:59.954Z,15.14
2022-10-04T09:35:00.204Z,15.13
2022-10-04T09:36:00.491Z,15.13
2022-10-04T09:37:00.717Z,15.11
2022-10-04T09:38:00.959Z,15.11
2022-10-04T09:39:25.616Z,15.14
2022-10-04T09:40:02.543Z,15.16
2022-10-04T09:41:02.006Z,15.19
2022-10-04T09:42:02.190Z,15.23
2022-10-04T09:43:02.505Z,15.29
2022-10-04T09:44:03.969Z,15.32
2022-10-04T09:45:03.045Z,15.34
2022-10-04T09:46:03.330Z,15.38
2022-10-04T09:47:03.558Z,15.43
2022-10-04T09:48:03.799Z,15.46
2022-10-04T09:49:04.022Z,15.50
2022-10-04T09:50:04.264Z,15.53
2022-10-04T09:51:04.511Z,15.57
2022-10-04T09:52:04.781Z,15.62
2022-10-04T09:53:05.023Z,15.68
2022-10-04T09:54:05.253Z,15.72
2022-10-04T09:55:05.487Z,15.76
2022-10-04T09:56:05.734Z,15.78
2022-10-04T09:57:05.983Z,15.83
2022-10-04T09:58:06.229Z,15.83
2022-10-04T09:59:06.474Z,15.86
2022-10-04T10:00:06.713Z,15.87
2022-10-04T10:01:06.945Z,15.87
2022-10-04T10:02:07.264Z,15.90
2022-10-04T10:03:10.936Z,15.92
2022-10-04T10:04:08.825Z,15.93
2022-10-04T10:05:08.116Z,15.96
2022-10-04T10:06:08.346Z,15.94
2022-10-04T10:07:08.608Z,15.94
2022-10-04T10:08:08.856Z,15.93
2022-10-04T10:09:09.088Z,15.94
2022-10-04T10:10:09.329Z,15.94
2022-10-04T10:11:09.557Z,15.96
2022-10-04T10:12:09.862Z,16.00
2022-10-04T10:13:10.091Z,16.00
2022-10-04T10:14:10.329Z,15.97
2022-10-04T10:15:11.522Z,16.00
2022-10-04T10:16:10.859Z,15.97
2022-10-04T10:17:11.112Z,15.97
2022-10-04T10:18:11.362Z,16.01
2022-10-04T10:19:11.595Z,16.00
2022-10-04T10:20:11.835Z,16.02
2022-10-04T10:21:12.054Z,16.01
2022-10-04T10:22:12.320Z,16.00
2022-10-04T10:23:12.553Z,15.96
2022-10-04T10:24:12.796Z,15.96
2022-10-04T10:25:13.047Z,15.94
2022-10-04T10:26:13.302Z,15.93
2022-10-04T10:27:13.546Z,15.94
2022-10-04T10:28:13.825Z,15.94
2022-10-04T10:29:14.067Z,15.94
2022-10-04T10:30:14.313Z,15.96
2022-10-04T10:31:14.579Z,15.96
2022-10-04T10:32:14.864Z,15.96
2022-10-04T10:33:15.081Z,15.97
2022-10-04T10:34:15.333Z,15.97
2022-10-04T10:35:15.556Z,15.96
2022-10-04T10:36:15.810Z,15.94
2022-10-04T10:37:16.060Z,15.92
2022-10-04T10:38:16.300Z,15.90
2022-10-04T10:39:16.608Z,15.92
2022-10-04T10:40:16.834Z,15.93
2022-10-04T10:41:17.072Z,15.93
2022-10-04T10:42:17.327Z,15.94
2022-10-04T10:43:17.583Z,15.94
2022-10-04T10:44:17.830Z,15.93
2022-10-04T10:45:18.065Z,15.89
2022-10-04T10:46:18.350Z,15.87
2022-10-04T10:47:18.584Z,15.84
2022-10-04T10:48:18.821Z,15.83
2022-10-04T10:49:22.284Z,15.78
2022-10-04T10:50:19.293Z,15.74
2022-10-04T10:51:19.532Z,15.71
2022-10-04T10:52:19.784Z,15.69
2022-10-04T10:53:20.044Z,15.67
2022-10-04T10:54:20.293Z,15.65
2022-10-04T10:55:20.532Z,15.65
2022-10-04T10:56:20.787Z,15.68
2022-10-04T10:57:22.022Z,15.71
2022-10-04T10:58:21.316Z,15.75
2022-10-04T10:59:21.562Z,15.80
2022-10-04T11:00:21.803Z,15.83
2022-10-04T11:01:22.064Z,15.89
2022-10-04T11:02:37.116Z,15.93
2022-10-04T11:03:27.192Z,15.96
2022-10-04T11:04:23.928Z,16.00
2022-10-04T11:05:23.239Z,16.04
2022-10-04T11:06:23.489Z,16.09
2022-10-04T11:07:23.741Z,16.08
2022-10-04T11:08:23.991Z,16.05
2022-10-04T11:09:24.228Z,16.05
2022-10-04T11:10:24.466Z,16.04
2022-10-04T11:11:24.705Z,16.04
2022-10-04T11:12:24.963Z,16.00
2022-10-04T11:13:25.229Z,16.01
2022-10-04T11:14:25.472Z,16.01
2022-10-04T11:15:25.754Z,16.04
2022-10-04T11:16:26.103Z,16.01
2022-10-04T11:17:26.366Z,16.01
2022-10-04T11:18:26.643Z,16.00
2022-10-04T11:19:26.904Z,15.96
2022-10-04T11:20:27.171Z,15.92
2022-10-04T11:21:27.416Z,15.90
2022-10-04T11:22:27.744Z,15.89
2022-10-04T11:23:28.000Z,15.89
2022-10-04T11:24:28.237Z,15.89
2022-10-04T11:25:28.534Z,15.89
2022-10-04T11:26:28.797Z,15.89
2022-10-04T11:27:29.134Z,15.86
2022-10-04T11:28:29.390Z,15.87
2022-10-04T11:29:29.647Z,15.89
2022-10-04T11:30:29.915Z,15.86
2022-10-04T11:31:30.246Z,15.87
2022-10-04T11:32:30.422Z,15.89
2022-10-04T11:33:30.665Z,15.90
2022-10-04T11:34:30.912Z,15.93
2022-10-04T11:35:31.175Z,15.94
2022-10-04T11:36:31.411Z,15.94
2022-10-04T11:37:31.672Z,15.96
2022-10-04T11:38:31.914Z,16.00
2022-10-04T11:39:32.164Z,16.00
2022-10-04T11:40:32.395Z,16.00
2022-10-04T11:41:32.633Z,16.01
2022-10-04T11:42:32.904Z,16.04
2022-10-04T11:43:33.187Z,16.08
2022-10-04T11:44:33.450Z,16.09
2022-10-04T11:45:33.747Z,16.14
2022-10-04T11:46:34.070Z,16.20
2022-10-04T11:47:34.378Z,16.21
2022-10-04T11:48:34.636Z,16.23
2022-10-04T11:49:34.911Z,16.25
2022-10-04T11:50:35.170Z,16.30
2022-10-04T11:51:35.418Z,16.31
2022-10-04T11:52:35.696Z,16.31
2022-10-04T11:53:35.960Z,16.31
2022-10-04T11:54:36.210Z,16.31
2022-10-04T11:55:36.469Z,16.31
2022-10-04T11:56:36.730Z,16.35
2022-10-04T11:57:36.979Z,16.34
2022-10-04T11:58:37.220Z,16.34
2022-10-04T11:59:37.472Z,16.35
2022-10-04T12:00:37.709Z,16.35
2022-10-04T12:01:37.943Z,16.34
2022-10-04T12:02:38.231Z,16.33
2022-10-04T12:03:38.544Z,16.28
2022-10-04T12:04:38.866Z,16.25
2022-10-04T12:05:39.132Z,16.25
2022-10-04T12:06:39.375Z,16.25
2022-10-04T12:07:39.656Z,16.27
2022-10-04T12:08:39.884Z,16.27
2022-10-04T12:09:40.125Z,16.28
2022-10-04T12:10:40.356Z,16.34
2022-10-04T12:11:40.596Z,16.39
2022-10-04T12:12:40.847Z,16.43
2022-10-04T12:13:41.090Z,16.49
2022-10-04T12:14:41.340Z,16.50
2022-10-04T12:15:41.593Z,16.57
2022-10-04T12:16:41.887Z,16.63
2022-10-04T12:17:42.179Z,16.63
2022-10-04T12:18:42.411Z,16.63
2022-10-04T12:19:42.672Z,16.61
2022-10-04T12:20:42.912Z,16.63
2022-10-04T12:21:43.159Z,16.63
2022-10-04T12:22:43.442Z,16.64
2022-10-04T12:23:43.682Z,16.63
2022-10-04T12:24:43.913Z,16.63
2022-10-04T12:25:44.155Z,16.66
2022-10-04T12:26:44.646Z,16.66
2022-10-04T12:27:44.671Z,16.63
2022-10-04T12:28:44.976Z,16.58
2022-10-04T12:29:45.187Z,16.56
2022-10-04T12:30:45.427Z,16.49
2022-10-04T12:31:45.786Z,16.43
2022-10-04T12:32:45.920Z,16.39
2022-10-04T12:33:46.168Z,16.35
2022-10-04T12:34:46.397Z,16.33
2022-10-04T12:35:46.638Z,16.30
2022-10-04T12:36:47.303Z,16.30
2022-10-04T12:37:47.162Z,16.28
2022-10-04T12:38:47.417Z,16.28
2022-10-04T12:39:47.692Z,16.28
2022-10-04T12:40:47.910Z,16.31
2022-10-04T12:41:48.183Z,16.34
2022-10-04T12:42:48.425Z,16.38
2022-10-04T12:43:48.661Z,16.43
2022-10-04T12:44:48.986Z,16.46
2022-10-04T12:45:49.335Z,16.52
2022-10-04T12:46:49.561Z,16.56
2022-10-04T12:47:49.871Z,16.60
2022-10-04T12:48:50.114Z,16.64
2022-10-04T12:49:50.362Z,16.66
2022-10-04T12:50:50.631Z,16.67
2022-10-04T12:51:50.946Z,16.68
2022-10-04T12:52:51.222Z,16.70
2022-10-04T12:53:54.460Z,16.71
2022-10-04T12:54:52.806Z,16.75
2022-10-04T12:55:52.121Z,16.76